sensor_id;sensor_type;location;lat;lon;timestamp;temperature;humidity
5276;DHT22;2661;50.786;12.728;2023-04-06T00:01:56;2.50;14.90
5276;DHT22;2661;50.786;12.728;2023-04-06T00:04:23;2.50;11.80
5276;DHT22;2661;50.786;12.728;2023-04-06T00:06:49;2.50;28.10
5276;DHT22;2661;50.786;12.728;2023-04-06T00:09:16;2.50;22.10
5276;DHT22;2661;50.786;12.728;2023-04-06T00:11:42;2.40;24.10
5276;DHT22;2661;50.786;12.728;2023-04-06T00:14:09;2.40;22.40
5276;DHT22;2661;50.786;12.728;2023-04-06T00:16:36;2.40;8.90
5276;DHT22;2661;50.786;12.728;2023-04-06T00:19:02;2.40;27.00
5276;DHT22;2661;50.786;12.728;2023-04-06T00:21:29;2.50;18.50
5276;DHT22;2661;50.786;12.728;2023-04-06T00:23:57;2.50;12.10
5276;DHT22;2661;50.786;12.728;2023-04-06T00:26:24;2.60;21.10
5276;DHT22;2661;50.786;12.728;2023-04-06T00:28:50;2.50;19.20
5276;DHT22;2661;50.786;12.728;2023-04-06T00:31:18;2.40;27.80
5276;DHT22;2661;50.786;12.728;2023-04-06T00:33:45;2.40;1.60
5276;DHT22;2661;50.786;12.728;2023-04-06T00:36:11;2.40;1.00
5276;DHT22;2661;50.786;12.728;2023-04-06T00:38:38;2.40;1.00
5276;DHT22;2661;50.786;12.728;2023-04-06T00:41:05;2.40;16.00
5276;DHT22;2661;50.786;12.728;2023-04-06T00:43:31;2.40;20.90
5276;DHT22;2661;50.786;12.728;2023-04-06T00:45:58;2.40;16.90
5276;DHT22;2661;50.786;12.728;2023-04-06T00:48:24;2.40;15.10
5276;DHT22;2661;50.786;12.728;2023-04-06T00:50:51;2.50;3.10
5276;DHT22;2661;50.786;12.728;2023-04-06T00:53:17;2.40;12.40
5276;DHT22;2661;50.786;12.728;2023-04-06T00:55:44;2.50;19.00
5276;DHT22;2661;50.786;12.728;2023-04-06T00:58:11;2.50;39.80
5276;DHT22;2661;50.786;12.728;2023-04-06T01:00:37;2.50;27.40
5276;DHT22;2661;50.786;12.728;2023-04-06T01:03:04;2.50;32.00
5276;DHT22;2661;50.786;12.728;2023-04-06T01:05:33;2.50;12.60
5276;DHT22;2661;50.786;12.728;2023-04-06T01:08:00;2.50;7.80
5276;DHT22;2661;50.786;12.728;2023-04-06T01:10:27;2.50;25.80
5276;DHT22;2661;50.786;12.728;2023-04-06T01:12:54;2.60;24.30
5276;DHT22;2661;50.786;12.728;2023-04-06T01:15:21;2.60;19.30
5276;DHT22;2661;50.786;12.728;2023-04-06T01:17:47;2.60;3.60
5276;DHT22;2661;50.786;12.728;2023-04-06T01:20:14;2.60;1.00
5276;DHT22;2661;50.786;12.728;2023-04-06T01:22:41;2.70;1.00
5276;DHT22;2661;50.786;12.728;2023-04-06T01:28:36;2.60;1.80
5276;DHT22;2661;50.786;12.728;2023-04-06T01:31:04;2.60;12.20
5276;DHT22;2661;50.786;12.728;2023-04-06T01:33:31;2.60;34.70
5276;DHT22;2661;50.786;12.728;2023-04-06T01:35:57;2.60;27.00
5276;DHT22;2661;50.786;12.728;2023-04-06T01:38:24;2.60;24.30
5276;DHT22;2661;50.786;12.728;2023-04-06T01:40:52;2.60;13.00
5276;DHT22;2661;50.786;12.728;2023-04-06T01:43:19;2.50;21.20
5276;DHT22;2661;50.786;12.728;2023-04-06T01:45:45;2.50;20.30
5276;DHT22;2661;50.786;12.728;2023-04-06T01:48:12;2.60;12.80
5276;DHT22;2661;50.786;12.728;2023-04-06T01:50:39;2.60;6.60
5276;DHT22;2661;50.786;12.728;2023-04-06T01:53:05;2.70;24.30
5276;DHT22;2661;50.786;12.728;2023-04-06T01:55:32;2.60;27.60
5276;DHT22;2661;50.786;12.728;2023-04-06T01:57:58;2.60;18.80
5276;DHT22;2661;50.786;12.728;2023-04-06T02:00:25;2.60;19.30
5276;DHT22;2661;50.786;12.728;2023-04-06T02:02:52;2.50;34.40
5276;DHT22;2661;50.786;12.728;2023-04-06T02:05:19;2.60;33.30
5276;DHT22;2661;50.786;12.728;2023-04-06T02:07:46;2.50;53.70
5276;DHT22;2661;50.786;12.728;2023-04-06T02:10:12;2.60;1.20
5276;DHT22;2661;50.786;12.728;2023-04-06T02:12:39;2.60;1.00
5276;DHT22;2661;50.786;12.728;2023-04-06T02:15:06;2.50;5.20
5276;DHT22;2661;50.786;12.728;2023-04-06T02:17:33;2.50;6.00
5276;DHT22;2661;50.786;12.728;2023-04-06T02:19:59;2.50;2.60
5276;DHT22;2661;50.786;12.728;2023-04-06T02:22:26;2.50;9.40
5276;DHT22;2661;50.786;12.728;2023-04-06T02:24:52;2.60;1.00
5276;DHT22;2661;50.786;12.728;2023-04-06T02:27:19;2.50;1.00
5276;DHT22;2661;50.786;12.728;2023-04-06T02:29:45;2.50;25.50
5276;DHT22;2661;50.786;12.728;2023-04-06T02:32:12;2.50;12.00
5276;DHT22;2661;50.786;12.728;2023-04-06T02:34:38;2.50;3.70
5276;DHT22;2661;50.786;12.728;2023-04-06T02:37:05;2.50;17.40
5276;DHT22;2661;50.786;12.728;2023-04-06T02:39:32;2.60;32.60
5276;DHT22;2661;50.786;12.728;2023-04-06T02:41:58;2.70;26.20
5276;DHT22;2661;50.786;12.728;2023-04-06T02:44:25;2.70;35.00
5276;DHT22;2661;50.786;12.728;2023-04-06T02:46:51;2.60;23.30
5276;DHT22;2661;50.786;12.728;2023-04-06T02:49:18;2.60;1.00
5276;DHT22;2661;50.786;12.728;2023-04-06T02:51:44;2.60;1.00
5276;DHT22;2661;50.786;12.728;2023-04-06T02:54:11;2.50;1.00
5276;DHT22;2661;50.786;12.728;2023-04-06T02:56:37;2.40;1.00
5276;DHT22;2661;50.786;12.728;2023-04-06T02:59:04;2.40;1.00
5276;DHT22;2661;50.786;12.728;2023-04-06T03:01:31;2.40;1.00
5276;DHT22;2661;50.786;12.728;2023-04-06T03:03:57;2.30;1.00
5276;DHT22;2661;50.786;12.728;2023-04-06T03:06:24;2.30;1.00
5276;DHT22;2661;50.786;12.728;2023-04-06T03:08:51;2.20;1.00
5276;DHT22;2661;50.786;12.728;2023-04-06T03:11:17;2.20;1.00
5276;DHT22;2661;50.786;12.728;2023-04-06T03:13:44;2.20;1.00
5276;DHT22;2661;50.786;12.728;2023-04-06T03:16:11;2.20;1.00
5276;DHT22;2661;50.786;12.728;2023-04-06T03:18:37;2.20;1.00
5276;DHT22;2661;50.786;12.728;2023-04-06T03:21:04;2.20;17.30
5276;DHT22;2661;50.786;12.728;2023-04-06T03:23:30;2.10;19.30
5276;DHT22;2661;50.786;12.728;2023-04-06T03:25:57;2.10;1.00
5276;DHT22;2661;50.786;12.728;2023-04-06T03:28:24;2.10;1.00
5276;DHT22;2661;50.786;12.728;2023-04-06T03:30:50;2.10;1.00
5276;DHT22;2661;50.786;12.728;2023-04-06T03:33:17;2.10;1.00
5276;DHT22;2661;50.786;12.728;2023-04-06T03:35:43;2.10;1.00
5276;DHT22;2661;50.786;12.728;2023-04-06T03:38:10;2.10;1.00
5276;DHT22;2661;50.786;12.728;2023-04-06T03:40:37;2.10;1.00
5276;DHT22;2661;50.786;12.728;2023-04-06T03:43:03;2.10;1.00
5276;DHT22;2661;50.786;12.728;2023-04-06T03:45:30;2.00;1.00
5276;DHT22;2661;50.786;12.728;2023-04-06T03:47:57;2.00;1.00
5276;DHT22;2661;50.786;12.728;2023-04-06T03:50:23;2.00;1.00
5276;DHT22;2661;50.786;12.728;2023-04-06T03:52:50;1.90;1.00
5276;DHT22;2661;50.786;12.728;2023-04-06T03:55:16;1.90;1.00
5276;DHT22;2661;50.786;12.728;2023-04-06T03:57:43;1.90;1.00
5276;DHT22;2661;50.786;12.728;2023-04-06T04:00:10;2.10;1.00
5276;DHT22;2661;50.786;12.728;2023-04-06T04:02:37;1.90;1.00
5276;DHT22;2661;50.786;12.728;2023-04-06T04:05:04;1.90;1.00
5276;DHT22;2661;50.786;12.728;2023-04-06T04:07:30;1.80;1.00
5276;DHT22;2661;50.786;12.728;2023-04-06T04:09:57;1.80;1.00
5276;DHT22;2661;50.786;12.728;2023-04-06T04:12:24;1.80;1.00
5276;DHT22;2661;50.786;12.728;2023-04-06T04:14:50;1.70;1.00
5276;DHT22;2661;50.786;12.728;2023-04-06T04:17:17;1.70;1.00
5276;DHT22;2661;50.786;12.728;2023-04-06T04:19:43;1.80;1.00
5276;DHT22;2661;50.786;12.728;2023-04-06T04:22:10;1.80;1.00
5276;DHT22;2661;50.786;12.728;2023-04-06T04:24:36;1.70;1.00
5276;DHT22;2661;50.786;12.728;2023-04-06T04:27:03;1.70;1.00
5276;DHT22;2661;50.786;12.728;2023-04-06T04:29:31;1.70;1.00
5276;DHT22;2661;50.786;12.728;2023-04-06T04:31:58;1.60;1.00
5276;DHT22;2661;50.786;12.728;2023-04-06T04:34:24;1.60;1.00
5276;DHT22;2661;50.786;12.728;2023-04-06T04:36:51;1.60;1.00
5276;DHT22;2661;50.786;12.728;2023-04-06T04:39:18;1.50;1.00
5276;DHT22;2661;50.786;12.728;2023-04-06T04:41:45;1.50;1.00
5276;DHT22;2661;50.786;12.728;2023-04-06T04:44:11;1.40;1.00
5276;DHT22;2661;50.786;12.728;2023-04-06T04:46:38;1.40;1.00
5276;DHT22;2661;50.786;12.728;2023-04-06T04:49:04;1.40;1.00
5276;DHT22;2661;50.786;12.728;2023-04-06T04:51:31;1.40;1.00
5276;DHT22;2661;50.786;12.728;2023-04-06T04:53:59;1.30;1.00
5276;DHT22;2661;50.786;12.728;2023-04-06T04:56:25;1.30;1.00
5276;DHT22;2661;50.786;12.728;2023-04-06T04:58:53;1.30;1.00
5276;DHT22;2661;50.786;12.728;2023-04-06T05:01:20;1.30;1.00
5276;DHT22;2661;50.786;12.728;2023-04-06T05:03:47;1.20;1.00
5276;DHT22;2661;50.786;12.728;2023-04-06T05:06:13;1.20;9.80
5276;DHT22;2661;50.786;12.728;2023-04-06T05:08:40;1.20;1.00
5276;DHT22;2661;50.786;12.728;2023-04-06T05:11:07;1.20;1.00
5276;DHT22;2661;50.786;12.728;2023-04-06T05:13:33;1.20;1.00
5276;DHT22;2661;50.786;12.728;2023-04-06T05:16:00;1.20;1.00
5276;DHT22;2661;50.786;12.728;2023-04-06T05:18:26;1.30;1.00
5276;DHT22;2661;50.786;12.728;2023-04-06T05:20:53;1.30;1.00
5276;DHT22;2661;50.786;12.728;2023-04-06T05:23:20;1.40;1.00
5276;DHT22;2661;50.786;12.728;2023-04-06T05:25:46;1.30;1.00
5276;DHT22;2661;50.786;12.728;2023-04-06T05:28:13;1.40;1.00
5276;DHT22;2661;50.786;12.728;2023-04-06T05:30:43;1.40;1.00
5276;DHT22;2661;50.786;12.728;2023-04-06T05:33:10;1.40;1.00
5276;DHT22;2661;50.786;12.728;2023-04-06T05:35:37;1.40;1.00
5276;DHT22;2661;50.786;12.728;2023-04-06T05:38:07;1.40;1.00
5276;DHT22;2661;50.786;12.728;2023-04-06T05:40:34;1.50;1.00
5276;DHT22;2661;50.786;12.728;2023-04-06T05:43:00;1.60;1.00
5276;DHT22;2661;50.786;12.728;2023-04-06T05:45:27;1.60;1.00
5276;DHT22;2661;50.786;12.728;2023-04-06T05:47:53;1.60;1.00
5276;DHT22;2661;50.786;12.728;2023-04-06T05:50:21;1.60;1.00
5276;DHT22;2661;50.786;12.728;2023-04-06T05:52:48;1.60;1.00
5276;DHT22;2661;50.786;12.728;2023-04-06T05:55:15;1.60;1.00
5276;DHT22;2661;50.786;12.728;2023-04-06T05:57:41;1.60;1.00
5276;DHT22;2661;50.786;12.728;2023-04-06T06:00:08;1.70;1.00
5276;DHT22;2661;50.786;12.728;2023-04-06T06:02:36;1.70;1.00
5276;DHT22;2661;50.786;12.728;2023-04-06T06:05:03;1.80;1.00
5276;DHT22;2661;50.786;12.728;2023-04-06T06:07:30;1.90;1.00
5276;DHT22;2661;50.786;12.728;2023-04-06T06:09:57;2.00;1.00
5276;DHT22;2661;50.786;12.728;2023-04-06T06:12:24;2.00;1.00
5276;DHT22;2661;50.786;12.728;2023-04-06T06:14:52;2.00;1.00
5276;DHT22;2661;50.786;12.728;2023-04-06T06:17:19;2.10;1.00
5276;DHT22;2661;50.786;12.728;2023-04-06T06:19:46;2.00;1.00
5276;DHT22;2661;50.786;12.728;2023-04-06T06:22:12;2.10;1.00
5276;DHT22;2661;50.786;12.728;2023-04-06T06:24:39;2.10;1.00
5276;DHT22;2661;50.786;12.728;2023-04-06T06:27:05;2.20;1.00
5276;DHT22;2661;50.786;12.728;2023-04-06T06:29:34;2.20;1.00
5276;DHT22;2661;50.786;12.728;2023-04-06T06:32:00;2.40;1.00
5276;DHT22;2661;50.786;12.728;2023-04-06T06:34:27;2.50;1.00
5276;DHT22;2661;50.786;12.728;2023-04-06T06:36:54;2.60;1.00
5276;DHT22;2661;50.786;12.728;2023-04-06T06:39:21;2.70;1.00
5276;DHT22;2661;50.786;12.728;2023-04-06T06:41:48;2.70;1.00
5276;DHT22;2661;50.786;12.728;2023-04-06T06:44:14;2.80;1.00
5276;DHT22;2661;50.786;12.728;2023-04-06T06:46:42;2.80;1.00
5276;DHT22;2661;50.786;12.728;2023-04-06T06:49:09;2.90;1.00
5276;DHT22;2661;50.786;12.728;2023-04-06T06:51:38;3.00;1.00
5276;DHT22;2661;50.786;12.728;2023-04-06T06:54:05;3.00;1.00
5276;DHT22;2661;50.786;12.728;2023-04-06T06:56:31;3.00;1.00
5276;DHT22;2661;50.786;12.728;2023-04-06T06:58:58;3.10;1.00
5276;DHT22;2661;50.786;12.728;2023-04-06T07:01:25;3.30;1.00
5276;DHT22;2661;50.786;12.728;2023-04-06T07:03:51;3.50;1.00
5276;DHT22;2661;50.786;12.728;2023-04-06T07:06:18;3.60;1.00
5276;DHT22;2661;50.786;12.728;2023-04-06T07:08:44;3.70;1.00
5276;DHT22;2661;50.786;12.728;2023-04-06T07:11:11;3.90;1.00
5276;DHT22;2661;50.786;12.728;2023-04-06T07:13:38;4.10;1.00
5276;DHT22;2661;50.786;12.728;2023-04-06T07:16:05;4.20;1.00
5276;DHT22;2661;50.786;12.728;2023-04-06T07:18:32;4.40;1.00
5276;DHT22;2661;50.786;12.728;2023-04-06T07:21:01;4.60;1.00
5276;DHT22;2661;50.786;12.728;2023-04-06T07:23:28;4.70;1.00
5276;DHT22;2661;50.786;12.728;2023-04-06T07:25:54;4.70;1.00
5276;DHT22;2661;50.786;12.728;2023-04-06T07:28:21;4.80;1.00
5276;DHT22;2661;50.786;12.728;2023-04-06T07:30:48;4.80;1.00
5276;DHT22;2661;50.786;12.728;2023-04-06T07:33:15;4.80;1.00
5276;DHT22;2661;50.786;12.728;2023-04-06T07:35:41;4.70;2.00
5276;DHT22;2661;50.786;12.728;2023-04-06T07:38:08;4.70;1.00
5276;DHT22;2661;50.786;12.728;2023-04-06T07:40:34;4.80;1.00
5276;DHT22;2661;50.786;12.728;2023-04-06T07:43:01;4.80;1.00
5276;DHT22;2661;50.786;12.728;2023-04-06T07:45:28;4.90;1.00
5276;DHT22;2661;50.786;12.728;2023-04-06T07:47:55;4.90;1.00
5276;DHT22;2661;50.786;12.728;2023-04-06T07:50:22;5.00;1.00
5276;DHT22;2661;50.786;12.728;2023-04-06T07:52:49;5.10;1.00
5276;DHT22;2661;50.786;12.728;2023-04-06T07:55:15;5.30;1.00
5276;DHT22;2661;50.786;12.728;2023-04-06T07:57:42;5.30;1.00
5276;DHT22;2661;50.786;12.728;2023-04-06T08:00:08;5.50;3.90
5276;DHT22;2661;50.786;12.728;2023-04-06T08:02:35;5.60;1.00
5276;DHT22;2661;50.786;12.728;2023-04-06T08:05:02;5.70;1.00
5276;DHT22;2661;50.786;12.728;2023-04-06T08:07:29;5.80;1.00
5276;DHT22;2661;50.786;12.728;2023-04-06T08:09:55;5.90;1.00
5276;DHT22;2661;50.786;12.728;2023-04-06T08:12:22;5.80;1.00
5276;DHT22;2661;50.786;12.728;2023-04-06T08:14:48;5.80;1.00
5276;DHT22;2661;50.786;12.728;2023-04-06T08:17:15;5.70;1.00
5276;DHT22;2661;50.786;12.728;2023-04-06T08:19:42;5.80;11.50
5276;DHT22;2661;50.786;12.728;2023-04-06T08:22:10;5.80;18.40
5276;DHT22;2661;50.786;12.728;2023-04-06T08:24:37;5.90;36.90
5276;DHT22;2661;50.786;12.728;2023-04-06T08:27:03;6.00;38.30
5276;DHT22;2661;50.786;12.728;2023-04-06T08:29:30;6.10;35.10
5276;DHT22;2661;50.786;12.728;2023-04-06T08:31:56;6.20;42.00
5276;DHT22;2661;50.786;12.728;2023-04-06T08:34:23;6.30;15.90
5276;DHT22;2661;50.786;12.728;2023-04-06T08:36:50;6.30;40.90
5276;DHT22;2661;50.786;12.728;2023-04-06T08:39:16;6.40;29.70
5276;DHT22;2661;50.786;12.728;2023-04-06T08:41:43;6.40;59.90
5276;DHT22;2661;50.786;12.728;2023-04-06T08:44:10;6.50;52.70
5276;DHT22;2661;50.786;12.728;2023-04-06T08:46:37;6.50;63.90
5276;DHT22;2661;50.786;12.728;2023-04-06T08:49:04;6.60;60.70
5276;DHT22;2661;50.786;12.728;2023-04-06T08:51:34;6.80;49.40
5276;DHT22;2661;50.786;12.728;2023-04-06T08:54:01;6.90;48.60
5276;DHT22;2661;50.786;12.728;2023-04-06T08:56:27;7.00;52.30
5276;DHT22;2661;50.786;12.728;2023-04-06T08:58:55;7.00;36.50
5276;DHT22;2661;50.786;12.728;2023-04-06T09:01:25;7.00;46.40
5276;DHT22;2661;50.786;12.728;2023-04-06T09:03:55;7.10;54.30
5276;DHT22;2661;50.786;12.728;2023-04-06T09:06:22;7.00;40.50
5276;DHT22;2661;50.786;12.728;2023-04-06T09:08:49;7.10;52.90
5276;DHT22;2661;50.786;12.728;2023-04-06T09:11:15;7.20;41.60
5276;DHT22;2661;50.786;12.728;2023-04-06T09:13:49;7.10;44.40
5276;DHT22;2661;50.786;12.728;2023-04-06T09:16:16;7.00;51.70
5276;DHT22;2661;50.786;12.728;2023-04-06T09:18:43;6.80;46.10
5276;DHT22;2661;50.786;12.728;2023-04-06T09:21:10;6.70;37.00
5276;DHT22;2661;50.786;12.728;2023-04-06T09:23:37;6.60;59.80
5276;DHT22;2661;50.786;12.728;2023-04-06T09:26:04;6.50;47.30
5276;DHT22;2661;50.786;12.728;2023-04-06T09:31:09;6.40;48.80
5276;DHT22;2661;50.786;12.728;2023-04-06T09:33:44;6.40;42.90
5276;DHT22;2661;50.786;12.728;2023-04-06T09:36:11;6.50;86.50
5276;DHT22;2661;50.786;12.728;2023-04-06T09:38:38;6.70;54.20
5276;DHT22;2661;50.786;12.728;2023-04-06T09:41:05;6.90;53.40
5276;DHT22;2661;50.786;12.728;2023-04-06T09:43:31;7.00;55.60
5276;DHT22;2661;50.786;12.728;2023-04-06T09:45:58;7.00;66.90
5276;DHT22;2661;50.786;12.728;2023-04-06T09:48:26;7.10;40.70
5276;DHT22;2661;50.786;12.728;2023-04-06T09:50:57;7.20;73.80
5276;DHT22;2661;50.786;12.728;2023-04-06T09:53:26;7.20;90.00
5276;DHT22;2661;50.786;12.728;2023-04-06T09:55:52;7.30;56.10
5276;DHT22;2661;50.786;12.728;2023-04-06T09:58:23;7.50;73.60
5276;DHT22;2661;50.786;12.728;2023-04-06T10:05:55;7.80;99.90
5276;DHT22;2661;50.786;12.728;2023-04-06T10:08:22;7.80;99.90
5276;DHT22;2661;50.786;12.728;2023-04-06T10:10:50;7.70;99.90
5276;DHT22;2661;50.786;12.728;2023-04-06T10:13:17;7.70;85.10
5276;DHT22;2661;50.786;12.728;2023-04-06T10:15:44;7.70;99.90
5276;DHT22;2661;50.786;12.728;2023-04-06T10:18:11;7.70;99.90
5276;DHT22;2661;50.786;12.728;2023-04-06T10:23:06;7.80;60.00
5276;DHT22;2661;50.786;12.728;2023-04-06T10:25:34;7.80;99.90
5276;DHT22;2661;50.786;12.728;2023-04-06T10:28:05;7.90;67.00
5276;DHT22;2661;50.786;12.728;2023-04-06T10:30:32;7.80;39.10
5276;DHT22;2661;50.786;12.728;2023-04-06T10:32:59;7.70;99.90
5276;DHT22;2661;50.786;12.728;2023-04-06T10:35:35;7.60;99.90
5276;DHT22;2661;50.786;12.728;2023-04-06T10:38:03;7.50;71.00
5276;DHT22;2661;50.786;12.728;2023-04-06T10:40:30;7.60;62.70
5276;DHT22;2661;50.786;12.728;2023-04-06T10:45:57;7.30;55.80
5276;DHT22;2661;50.786;12.728;2023-04-06T10:48:24;7.20;99.90
5276;DHT22;2661;50.786;12.728;2023-04-06T10:50:52;7.30;73.90
5276;DHT22;2661;50.786;12.728;2023-04-06T10:53:22;7.40;99.90
5276;DHT22;2661;50.786;12.728;2023-04-06T10:55:49;7.50;99.90
5276;DHT22;2661;50.786;12.728;2023-04-06T10:58:17;7.40;67.60
5276;DHT22;2661;50.786;12.728;2023-04-06T11:00:44;7.50;72.40
5276;DHT22;2661;50.786;12.728;2023-04-06T11:03:16;7.50;69.30
5276;DHT22;2661;50.786;12.728;2023-04-06T11:05:44;7.60;99.90
5276;DHT22;2661;50.786;12.728;2023-04-06T11:10:49;7.50;92.80
5276;DHT22;2661;50.786;12.728;2023-04-06T11:13:16;7.50;76.80
5276;DHT22;2661;50.786;12.728;2023-04-06T11:15:42;7.50;91.70
5276;DHT22;2661;50.786;12.728;2023-04-06T11:18:09;7.50;85.80
5276;DHT22;2661;50.786;12.728;2023-04-06T11:20:37;7.50;92.40
5276;DHT22;2661;50.786;12.728;2023-04-06T11:23:04;7.50;82.60
5276;DHT22;2661;50.786;12.728;2023-04-06T11:25:30;7.60;89.30
5276;DHT22;2661;50.786;12.728;2023-04-06T11:27:58;7.60;99.90
5276;DHT22;2661;50.786;12.728;2023-04-06T11:30:25;7.70;99.90
5276;DHT22;2661;50.786;12.728;2023-04-06T11:32:52;7.80;99.90
5276;DHT22;2661;50.786;12.728;2023-04-06T11:35:26;7.80;93.70
5276;DHT22;2661;50.786;12.728;2023-04-06T11:37:52;7.80;94.20
5276;DHT22;2661;50.786;12.728;2023-04-06T11:40:22;7.90;91.00
5276;DHT22;2661;50.786;12.728;2023-04-06T11:42:55;8.00;94.00
5276;DHT22;2661;50.786;12.728;2023-04-06T11:45:22;8.00;99.10
5276;DHT22;2661;50.786;12.728;2023-04-06T11:47:56;8.10;96.50
5276;DHT22;2661;50.786;12.728;2023-04-06T11:50:24;8.10;97.20
5276;DHT22;2661;50.786;12.728;2023-04-06T11:52:57;8.00;85.60
5276;DHT22;2661;50.786;12.728;2023-04-06T11:55:24;8.00;99.90
5276;DHT22;2661;50.786;12.728;2023-04-06T11:57:51;8.00;99.90
5276;DHT22;2661;50.786;12.728;2023-04-06T12:00:18;7.90;99.90
5276;DHT22;2661;50.786;12.728;2023-04-06T12:02:45;8.00;92.60
5276;DHT22;2661;50.786;12.728;2023-04-06T12:05:12;8.10;91.60
5276;DHT22;2661;50.786;12.728;2023-04-06T12:07:38;8.20;94.10
5276;DHT22;2661;50.786;12.728;2023-04-06T12:10:08;8.00;98.50
5276;DHT22;2661;50.786;12.728;2023-04-06T12:12:35;8.00;97.40
5276;DHT22;2661;50.786;12.728;2023-04-06T12:15:01;8.10;99.90
5276;DHT22;2661;50.786;12.728;2023-04-06T12:17:28;8.40;99.90
5276;DHT22;2661;50.786;12.728;2023-04-06T12:19:54;8.50;99.90
5276;DHT22;2661;50.786;12.728;2023-04-06T12:22:30;8.60;99.90
5276;DHT22;2661;50.786;12.728;2023-04-06T12:24:57;8.60;99.90
5276;DHT22;2661;50.786;12.728;2023-04-06T12:27:23;8.60;99.90
5276;DHT22;2661;50.786;12.728;2023-04-06T12:29:50;8.60;99.90
5276;DHT22;2661;50.786;12.728;2023-04-06T12:32:17;8.50;99.90
5276;DHT22;2661;50.786;12.728;2023-04-06T12:34:43;8.50;99.90
5276;DHT22;2661;50.786;12.728;2023-04-06T12:37:10;8.50;99.90
5276;DHT22;2661;50.786;12.728;2023-04-06T12:39:37;8.50;99.90
5276;DHT22;2661;50.786;12.728;2023-04-06T12:42:03;8.40;99.90
5276;DHT22;2661;50.786;12.728;2023-04-06T12:44:31;8.40;99.90
5276;DHT22;2661;50.786;12.728;2023-04-06T12:46:57;8.30;99.90
5276;DHT22;2661;50.786;12.728;2023-04-06T12:49:24;8.40;99.90
5276;DHT22;2661;50.786;12.728;2023-04-06T12:51:52;8.30;99.90
5276;DHT22;2661;50.786;12.728;2023-04-06T12:54:18;8.50;91.20
5276;DHT22;2661;50.786;12.728;2023-04-06T12:56:46;8.60;99.60
5276;DHT22;2661;50.786;12.728;2023-04-06T12:59:12;8.60;99.90
5276;DHT22;2661;50.786;12.728;2023-04-06T13:01:39;8.60;99.90
5276;DHT22;2661;50.786;12.728;2023-04-06T13:04:06;8.80;99.90
5276;DHT22;2661;50.786;12.728;2023-04-06T13:06:32;8.70;99.90
5276;DHT22;2661;50.786;12.728;2023-04-06T13:08:59;8.70;99.90
5276;DHT22;2661;50.786;12.728;2023-04-06T13:11:26;8.70;99.90
5276;DHT22;2661;50.786;12.728;2023-04-06T13:13:54;8.70;99.90
5276;DHT22;2661;50.786;12.728;2023-04-06T13:16:21;8.70;99.90
5276;DHT22;2661;50.786;12.728;2023-04-06T13:18:47;8.60;99.90
5276;DHT22;2661;50.786;12.728;2023-04-06T13:21:14;8.70;99.90
5276;DHT22;2661;50.786;12.728;2023-04-06T13:23:42;8.70;99.90
5276;DHT22;2661;50.786;12.728;2023-04-06T13:26:09;8.70;99.90
5276;DHT22;2661;50.786;12.728;2023-04-06T13:28:36;8.60;99.90
5276;DHT22;2661;50.786;12.728;2023-04-06T13:31:06;8.70;99.90
5276;DHT22;2661;50.786;12.728;2023-04-06T13:33:33;8.70;99.90
5276;DHT22;2661;50.786;12.728;2023-04-06T13:36:00;8.70;89.80
5276;DHT22;2661;50.786;12.728;2023-04-06T13:38:27;8.80;91.80
5276;DHT22;2661;50.786;12.728;2023-04-06T13:40:54;8.80;99.90
5276;DHT22;2661;50.786;12.728;2023-04-06T13:43:21;8.80;99.90
5276;DHT22;2661;50.786;12.728;2023-04-06T13:45:51;8.80;99.90
5276;DHT22;2661;50.786;12.728;2023-04-06T13:48:18;8.80;99.90
5276;DHT22;2661;50.786;12.728;2023-04-06T13:50:44;8.80;99.90
5276;DHT22;2661;50.786;12.728;2023-04-06T13:53:12;8.90;99.90
5276;DHT22;2661;50.786;12.728;2023-04-06T13:55:38;8.90;99.90
5276;DHT22;2661;50.786;12.728;2023-04-06T13:58:06;8.90;99.90
5276;DHT22;2661;50.786;12.728;2023-04-06T14:00:33;8.90;99.90
5276;DHT22;2661;50.786;12.728;2023-04-06T14:03:00;8.90;99.90
5276;DHT22;2661;50.786;12.728;2023-04-06T14:05:30;8.90;95.30
5276;DHT22;2661;50.786;12.728;2023-04-06T14:07:56;9.00;99.90
5276;DHT22;2661;50.786;12.728;2023-04-06T14:10:23;9.10;99.90
5276;DHT22;2661;50.786;12.728;2023-04-06T14:12:52;9.10;99.90
5276;DHT22;2661;50.786;12.728;2023-04-06T14:15:19;9.20;99.90
5276;DHT22;2661;50.786;12.728;2023-04-06T14:17:48;9.00;99.90
5276;DHT22;2661;50.786;12.728;2023-04-06T14:20:15;9.00;66.10
5276;DHT22;2661;50.786;12.728;2023-04-06T14:22:41;8.90;72.70
5276;DHT22;2661;50.786;12.728;2023-04-06T14:25:09;8.90;98.90
5276;DHT22;2661;50.786;12.728;2023-04-06T14:27:39;8.90;80.90
5276;DHT22;2661;50.786;12.728;2023-04-06T14:30:05;8.90;99.90
5276;DHT22;2661;50.786;12.728;2023-04-06T14:32:34;8.90;99.90
5276;DHT22;2661;50.786;12.728;2023-04-06T14:35:00;9.00;99.90
5276;DHT22;2661;50.786;12.728;2023-04-06T14:37:27;9.10;99.90
5276;DHT22;2661;50.786;12.728;2023-04-06T14:39:53;9.20;99.90
5276;DHT22;2661;50.786;12.728;2023-04-06T14:42:20;9.30;99.90
5276;DHT22;2661;50.786;12.728;2023-04-06T14:44:47;9.30;96.90
5276;DHT22;2661;50.786;12.728;2023-04-06T14:47:15;9.40;96.70
5276;DHT22;2661;50.786;12.728;2023-04-06T14:49:47;9.30;86.50
5276;DHT22;2661;50.786;12.728;2023-04-06T14:52:14;9.40;99.90
5276;DHT22;2661;50.786;12.728;2023-04-06T14:54:40;9.40;99.90
5276;DHT22;2661;50.786;12.728;2023-04-06T14:57:07;9.40;83.40
5276;DHT22;2661;50.786;12.728;2023-04-06T14:59:34;9.40;90.30
5276;DHT22;2661;50.786;12.728;2023-04-06T15:02:05;9.30;92.20
5276;DHT22;2661;50.786;12.728;2023-04-06T15:04:33;9.30;99.90
5276;DHT22;2661;50.786;12.728;2023-04-06T15:07:00;9.30;99.90
5276;DHT22;2661;50.786;12.728;2023-04-06T15:09:27;9.30;99.90
5276;DHT22;2661;50.786;12.728;2023-04-06T15:11:53;9.30;99.90
5276;DHT22;2661;50.786;12.728;2023-04-06T15:14:20;9.30;94.40
5276;DHT22;2661;50.786;12.728;2023-04-06T15:16:46;9.30;99.90
5276;DHT22;2661;50.786;12.728;2023-04-06T15:19:13;9.40;99.90
5276;DHT22;2661;50.786;12.728;2023-04-06T15:21:40;9.30;99.90
5276;DHT22;2661;50.786;12.728;2023-04-06T15:24:07;9.20;99.90
5276;DHT22;2661;50.786;12.728;2023-04-06T15:26:35;9.10;99.90
5276;DHT22;2661;50.786;12.728;2023-04-06T15:29:02;9.20;99.90
5276;DHT22;2661;50.786;12.728;2023-04-06T15:31:29;9.30;99.90
5276;DHT22;2661;50.786;12.728;2023-04-06T15:34:04;9.20;99.90
5276;DHT22;2661;50.786;12.728;2023-04-06T15:36:31;9.20;99.90
5276;DHT22;2661;50.786;12.728;2023-04-06T15:38:57;9.00;99.90
5276;DHT22;2661;50.786;12.728;2023-04-06T15:41:24;8.90;99.90
5276;DHT22;2661;50.786;12.728;2023-04-06T15:43:54;9.00;99.90
5276;DHT22;2661;50.786;12.728;2023-04-06T15:46:21;8.90;99.90
5276;DHT22;2661;50.786;12.728;2023-04-06T15:48:48;8.90;99.90
5276;DHT22;2661;50.786;12.728;2023-04-06T15:51:14;8.90;99.90
5276;DHT22;2661;50.786;12.728;2023-04-06T15:53:43;8.90;99.90
5276;DHT22;2661;50.786;12.728;2023-04-06T15:56:10;9.00;99.90
5276;DHT22;2661;50.786;12.728;2023-04-06T15:58:39;9.00;99.90
5276;DHT22;2661;50.786;12.728;2023-04-06T16:01:10;9.00;99.90
5276;DHT22;2661;50.786;12.728;2023-04-06T16:03:37;9.00;99.90
5276;DHT22;2661;50.786;12.728;2023-04-06T16:06:03;9.00;99.90
5276;DHT22;2661;50.786;12.728;2023-04-06T16:08:34;9.10;99.90
5276;DHT22;2661;50.786;12.728;2023-04-06T16:11:02;9.10;99.90
5276;DHT22;2661;50.786;12.728;2023-04-06T16:13:28;9.20;99.90
5276;DHT22;2661;50.786;12.728;2023-04-06T16:15:55;9.30;99.90
5276;DHT22;2661;50.786;12.728;2023-04-06T16:18:22;9.30;99.90
5276;DHT22;2661;50.786;12.728;2023-04-06T16:20:48;9.30;99.90
5276;DHT22;2661;50.786;12.728;2023-04-06T16:23:15;9.30;99.10
5276;DHT22;2661;50.786;12.728;2023-04-06T16:25:42;9.40;99.90